sensor_id;sensor_type;location;lat;lon;timestamp;pressure;altitude;pressure_sealevel;temperature
70533;BMP180;58088;51.186;17.130;2023-09-08T00:02:11;101110.40;;;18.00
70533;BMP180;58088;51.186;17.130;2023-09-08T00:04:38;101107.60;;;18.00
70533;BMP180;58088;51.186;17.130;2023-09-08T00:07:05;101098.80;;;17.90
70533;BMP180;58088;51.186;17.130;2023-09-08T00:09:31;101094.20;;;17.90
70533;BMP180;58088;51.186;17.130;2023-09-08T00:11:57;101097.00;;;17.90
70533;BMP180;58088;51.186;17.130;2023-09-08T00:14:23;101094.80;;;17.90
70533;BMP180;58088;51.186;17.130;2023-09-08T00:16:51;101099.00;;;17.90
70533;BMP180;58088;51.186;17.130;2023-09-08T00:19:21;101096.80;;;17.88
70533;BMP180;58088;51.186;17.130;2023-09-08T00:21:47;101099.80;;;17.80
70533;BMP180;58088;51.186;17.130;2023-09-08T00:24:13;101095.60;;;17.70
70533;BMP180;58088;51.186;17.130;2023-09-08T00:26:39;101095.40;;;17.60
70533;BMP180;58088;51.186;17.130;2023-09-08T00:29:05;101091.00;;;17.60
70533;BMP180;58088;51.186;17.130;2023-09-08T00:31:32;101086.80;;;17.60
70533;BMP180;58088;51.186;17.130;2023-09-08T00:33:59;101092.80;;;17.60
70533;BMP180;58088;51.186;17.130;2023-09-08T00:36:25;101090.00;;;17.60
70533;BMP180;58088;51.186;17.130;2023-09-08T00:38:51;101090.20;;;17.60
70533;BMP180;58088;51.186;17.130;2023-09-08T00:41:18;101081.60;;;17.60
70533;BMP180;58088;51.186;17.130;2023-09-08T00:43:44;101079.80;;;17.60
70533;BMP180;58088;51.186;17.130;2023-09-08T00:46:11;101083.40;;;17.58
70533;BMP180;58088;51.186;17.130;2023-09-08T00:48:38;101082.00;;;17.50
70533;BMP180;58088;51.186;17.130;2023-09-08T00:51:04;101079.60;;;17.50
70533;BMP180;58088;51.186;17.130;2023-09-08T00:53:33;101079.20;;;17.50
70533;BMP180;58088;51.186;17.130;2023-09-08T00:56:02;101078.40;;;17.50
70533;BMP180;58088;51.186;17.130;2023-09-08T00:58:30;101075.40;;;17.40
70533;BMP180;58088;51.186;17.130;2023-09-08T01:00:58;101074.00;;;17.40
70533;BMP180;58088;51.186;17.130;2023-09-08T01:03:26;101079.80;;;17.32
70533;BMP180;58088;51.186;17.130;2023-09-08T01:05:53;101081.20;;;17.30
70533;BMP180;58088;51.186;17.130;2023-09-08T01:08:20;101077.80;;;17.30
70533;BMP180;58088;51.186;17.130;2023-09-08T01:10:48;101070.40;;;17.20
70533;BMP180;58088;51.186;17.130;2023-09-08T01:13:14;101069.60;;;17.20
70533;BMP180;58088;51.186;17.130;2023-09-08T01:15:40;101066.80;;;17.20
70533;BMP180;58088;51.186;17.130;2023-09-08T01:18:07;101069.00;;;17.20
70533;BMP180;58088;51.186;17.130;2023-09-08T01:26:08;101060.80;;;17.20
70533;BMP180;58088;51.186;17.130;2023-09-08T01:28:38;101062.00;;;17.20
70533;BMP180;58088;51.186;17.130;2023-09-08T01:31:06;101059.20;;;17.20
70533;BMP180;58088;51.186;17.130;2023-09-08T01:33:33;101056.60;;;17.18
70533;BMP180;58088;51.186;17.130;2023-09-08T01:35:59;101065.00;;;17.14
70533;BMP180;58088;51.186;17.130;2023-09-08T01:38:26;101063.80;;;17.10
70533;BMP180;58088;51.186;17.130;2023-09-08T01:40:52;101060.40;;;17.10
70533;BMP180;58088;51.186;17.130;2023-09-08T01:43:18;101063.40;;;17.10
70533;BMP180;58088;51.186;17.130;2023-09-08T01:45:45;101066.20;;;17.10
70533;BMP180;58088;51.186;17.130;2023-09-08T01:48:11;101062.40;;;17.00
70533;BMP180;58088;51.186;17.130;2023-09-08T01:50:37;101063.00;;;17.00
70533;BMP180;58088;51.186;17.130;2023-09-08T01:53:03;101061.40;;;16.90
70533;BMP180;58088;51.186;17.130;2023-09-08T01:55:29;101063.40;;;16.90
70533;BMP180;58088;51.186;17.130;2023-09-08T01:57:56;101061.60;;;16.90
70533;BMP180;58088;51.186;17.130;2023-09-08T02:00:22;101065.80;;;16.90
70533;BMP180;58088;51.186;17.130;2023-09-08T02:03:08;101062.00;;;16.90
70533;BMP180;58088;51.186;17.130;2023-09-08T02:05:36;101059.40;;;16.86
70533;BMP180;58088;51.186;17.130;2023-09-08T02:08:05;101057.80;;;16.80
70533;BMP180;58088;51.186;17.130;2023-09-08T02:10:32;101052.40;;;16.80
70533;BMP180;58088;51.186;17.130;2023-09-08T02:12:58;101055.60;;;16.70
70533;BMP180;58088;51.186;17.130;2023-09-08T02:15:24;101053.00;;;16.70
70533;BMP180;58088;51.186;17.130;2023-09-08T02:17:53;101047.40;;;16.70
70533;BMP180;58088;51.186;17.130;2023-09-08T02:20:20;101057.60;;;16.66
70533;BMP180;58088;51.186;17.130;2023-09-08T02:22:47;101056.00;;;16.60
70533;BMP180;58088;51.186;17.130;2023-09-08T02:25:16;101054.40;;;16.60
70533;BMP180;58088;51.186;17.130;2023-09-08T02:27:43;101056.40;;;16.60
70533;BMP180;58088;51.186;17.130;2023-09-08T02:30:10;101052.80;;;16.60
70533;BMP180;58088;51.186;17.130;2023-09-08T02:32:36;101055.00;;;16.60
70533;BMP180;58088;51.186;17.130;2023-09-08T02:35:03;101053.00;;;16.60
70533;BMP180;58088;51.186;17.130;2023-09-08T02:37:29;101050.60;;;16.56
70533;BMP180;58088;51.186;17.130;2023-09-08T02:39:55;101048.80;;;16.50
70533;BMP180;58088;51.186;17.130;2023-09-08T02:42:21;101045.20;;;16.50
70533;BMP180;58088;51.186;17.130;2023-09-08T02:44:47;101042.00;;;16.50
70533;BMP180;58088;51.186;17.130;2023-09-08T02:47:13;101046.40;;;16.50
70533;BMP180;58088;51.186;17.130;2023-09-08T02:49:40;101048.20;;;16.42
70533;BMP180;58088;51.186;17.130;2023-09-08T02:52:06;101041.40;;;16.40
70533;BMP180;58088;51.186;17.130;2023-09-08T02:54:34;101044.00;;;16.40
70533;BMP180;58088;51.186;17.130;2023-09-08T02:57:00;101038.60;;;16.40
70533;BMP180;58088;51.186;17.130;2023-09-08T02:59:26;101038.80;;;16.40
70533;BMP180;58088;51.186;17.130;2023-09-08T03:01:52;101040.20;;;16.40
70533;BMP180;58088;51.186;17.130;2023-09-08T03:04:19;101036.80;;;16.40
70533;BMP180;58088;51.186;17.130;2023-09-08T03:06:45;101035.80;;;16.40
70533;BMP180;58088;51.186;17.130;2023-09-08T03:09:12;101037.40;;;16.40
70533;BMP180;58088;51.186;17.130;2023-09-08T03:11:38;101036.60;;;16.40
70533;BMP180;58088;51.186;17.130;2023-09-08T03:14:07;101036.40;;;16.30
70533;BMP180;58088;51.186;17.130;2023-09-08T03:16:33;101037.00;;;16.30
70533;BMP180;58088;51.186;17.130;2023-09-08T03:18:59;101029.00;;;16.30
70533;BMP180;58088;51.186;17.130;2023-09-08T03:21:26;101025.40;;;16.30
70533;BMP180;58088;51.186;17.130;2023-09-08T03:23:52;101037.20;;;16.30
70533;BMP180;58088;51.186;17.130;2023-09-08T03:26:18;101025.60;;;16.30
70533;BMP180;58088;51.186;17.130;2023-09-08T03:28:44;101029.00;;;16.30
70533;BMP180;58088;51.186;17.130;2023-09-08T03:31:10;101026.60;;;16.28
70533;BMP180;58088;51.186;17.130;2023-09-08T03:33:37;101033.40;;;16.20
70533;BMP180;58088;51.186;17.130;2023-09-08T03:36:04;101028.20;;;16.20
70533;BMP180;58088;51.186;17.130;2023-09-08T03:38:30;101030.00;;;16.20
70533;BMP180;58088;51.186;17.130;2023-09-08T03:40:56;101023.20;;;16.20
70533;BMP180;58088;51.186;17.130;2023-09-08T03:43:24;101029.40;;;16.16
70533;BMP180;58088;51.186;17.130;2023-09-08T03:45:50;101023.60;;;16.10
70533;BMP180;58088;51.186;17.130;2023-09-08T03:48:16;101026.40;;;16.10
70533;BMP180;58088;51.186;17.130;2023-09-08T03:50:43;101020.00;;;16.10
70533;BMP180;58088;51.186;17.130;2023-09-08T03:53:12;101024.40;;;16.00
70533;BMP180;58088;51.186;17.130;2023-09-08T03:55:39;101024.40;;;16.00
70533;BMP180;58088;51.186;17.130;2023-09-08T03:58:05;101027.00;;;16.00
70533;BMP180;58088;51.186;17.130;2023-09-08T04:00:32;101021.00;;;15.90
70533;BMP180;58088;51.186;17.130;2023-09-08T04:02:58;101026.80;;;15.90
70533;BMP180;58088;51.186;17.130;2023-09-08T04:05:24;101028.40;;;15.90
70533;BMP180;58088;51.186;17.130;2023-09-08T04:07:50;101025.20;;;15.90
70533;BMP180;58088;51.186;17.130;2023-09-08T04:10:17;101024.00;;;15.90
70533;BMP180;58088;51.186;17.130;2023-09-08T04:12:43;101028.00;;;15.90
70533;BMP180;58088;51.186;17.130;2023-09-08T04:15:10;101031.00;;;15.82
70533;BMP180;58088;51.186;17.130;2023-09-08T04:17:37;101023.20;;;15.80
70533;BMP180;58088;51.186;17.130;2023-09-08T04:20:05;101023.40;;;15.70
70533;BMP180;58088;51.186;17.130;2023-09-08T04:22:32;101028.20;;;15.70
70533;BMP180;58088;51.186;17.130;2023-09-08T04:25:00;101031.00;;;15.70
70533;BMP180;58088;51.186;17.130;2023-09-08T04:27:28;101026.20;;;15.70
70533;BMP180;58088;51.186;17.130;2023-09-08T04:29:54;101023.80;;;15.72
70533;BMP180;58088;51.186;17.130;2023-09-08T04:32:20;101023.40;;;15.80
70533;BMP180;58088;51.186;17.130;2023-09-08T04:34:46;101022.00;;;15.94
70533;BMP180;58088;51.186;17.130;2023-09-08T04:37:12;101025.00;;;16.14
70533;BMP180;58088;51.186;17.130;2023-09-08T04:39:40;101030.00;;;16.38
70533;BMP180;58088;51.186;17.130;2023-09-08T04:42:06;101030.80;;;16.50
70533;BMP180;58088;51.186;17.130;2023-09-08T04:44:33;101032.80;;;16.80
70533;BMP180;58088;51.186;17.130;2023-09-08T04:46:59;101028.60;;;17.02
70533;BMP180;58088;51.186;17.130;2023-09-08T04:49:25;101026.20;;;17.40
70533;BMP180;58088;51.186;17.130;2023-09-08T04:51:53;101027.20;;;17.66
70533;BMP180;58088;51.186;17.130;2023-09-08T04:54:20;101020.40;;;17.98
70533;BMP180;58088;51.186;17.130;2023-09-08T04:56:47;101023.20;;;18.38
70533;BMP180;58088;51.186;17.130;2023-09-08T04:59:14;101017.20;;;18.70
70533;BMP180;58088;51.186;17.130;2023-09-08T05:01:40;101019.60;;;19.16
70533;BMP180;58088;51.186;17.130;2023-09-08T05:04:07;101015.00;;;19.60
70533;BMP180;58088;51.186;17.130;2023-09-08T05:06:33;101014.40;;;20.00
70533;BMP180;58088;51.186;17.130;2023-09-08T05:08:59;101018.20;;;20.40
70533;BMP180;58088;51.186;17.130;2023-09-08T05:11:27;101023.80;;;20.80
70533;BMP180;58088;51.186;17.130;2023-09-08T05:13:53;101022.60;;;21.28
70533;BMP180;58088;51.186;17.130;2023-09-08T05:16:20;101026.40;;;21.76
70533;BMP180;58088;51.186;17.130;2023-09-08T05:19:05;101032.20;;;22.22
70533;BMP180;58088;51.186;17.130;2023-09-08T05:21:33;101026.80;;;22.66
70533;BMP180;58088;51.186;17.130;2023-09-08T05:24:00;101024.60;;;23.06
70533;BMP180;58088;51.186;17.130;2023-09-08T05:26:26;101023.60;;;23.58
70533;BMP180;58088;51.186;17.130;2023-09-08T05:28:52;101025.40;;;23.80
70533;BMP180;58088;51.186;17.130;2023-09-08T05:31:19;101028.80;;;24.10
70533;BMP180;58088;51.186;17.130;2023-09-08T05:33:45;101027.80;;;24.44
70533;BMP180;58088;51.186;17.130;2023-09-08T05:36:11;101034.60;;;24.76
70533;BMP180;58088;51.186;17.130;2023-09-08T05:38:37;101037.20;;;25.10
70533;BMP180;58088;51.186;17.130;2023-09-08T05:41:04;101035.40;;;25.44
70533;BMP180;58088;51.186;17.130;2023-09-08T05:43:31;101035.00;;;25.80
70533;BMP180;58088;51.186;17.130;2023-09-08T05:45:57;101037.60;;;26.10
70533;BMP180;58088;51.186;17.130;2023-09-08T05:48:24;101042.20;;;26.30
70533;BMP180;58088;51.186;17.130;2023-09-08T05:50:51;101038.00;;;26.44
70533;BMP180;58088;51.186;17.130;2023-09-08T05:53:17;101041.40;;;26.70
70533;BMP180;58088;51.186;17.130;2023-09-08T05:55:44;101044.40;;;26.98
70533;BMP180;58088;51.186;17.130;2023-09-08T05:58:10;101048.00;;;27.20
70533;BMP180;58088;51.186;17.130;2023-09-08T06:00:37;101041.80;;;27.40
70533;BMP180;58088;51.186;17.130;2023-09-08T06:03:03;101044.00;;;27.50
70533;BMP180;58088;51.186;17.130;2023-09-08T06:05:30;101047.40;;;27.60
70533;BMP180;58088;51.186;17.130;2023-09-08T06:07:56;101048.40;;;27.50
70533;BMP180;58088;51.186;17.130;2023-09-08T06:10:22;101044.40;;;27.60
70533;BMP180;58088;51.186;17.130;2023-09-08T06:12:48;101043.60;;;27.70
70533;BMP180;58088;51.186;17.130;2023-09-08T06:15:17;101037.60;;;27.90
70533;BMP180;58088;51.186;17.130;2023-09-08T06:17:44;101039.60;;;28.12
70533;BMP180;58088;51.186;17.130;2023-09-08T06:20:11;101034.60;;;28.20
70533;BMP180;58088;51.186;17.130;2023-09-08T06:22:37;101040.40;;;28.20
70533;BMP180;58088;51.186;17.130;2023-09-08T06:25:04;101041.40;;;28.10
70533;BMP180;58088;51.186;17.130;2023-09-08T06:27:30;101043.20;;;28.08
70533;BMP180;58088;51.186;17.130;2023-09-08T06:29:57;101042.60;;;28.10
70533;BMP180;58088;51.186;17.130;2023-09-08T06:32:23;101044.40;;;28.10
70533;BMP180;58088;51.186;17.130;2023-09-08T06:34:50;101047.00;;;28.20
70533;BMP180;58088;51.186;17.130;2023-09-08T06:37:16;101044.00;;;28.40
70533;BMP180;58088;51.186;17.130;2023-09-08T06:39:42;101053.00;;;28.50
70533;BMP180;58088;51.186;17.130;2023-09-08T06:42:08;101053.20;;;28.60
70533;BMP180;58088;51.186;17.130;2023-09-08T06:44:35;101054.00;;;28.60
70533;BMP180;58088;51.186;17.130;2023-09-08T06:47:03;101053.20;;;28.44
70533;BMP180;58088;51.186;17.130;2023-09-08T06:49:33;101061.00;;;28.30
70533;BMP180;58088;51.186;17.130;2023-09-08T06:52:00;101062.60;;;28.30
70533;BMP180;58088;51.186;17.130;2023-09-08T06:54:26;101062.40;;;28.30
70533;BMP180;58088;51.186;17.130;2023-09-08T06:56:52;101061.60;;;28.40
70533;BMP180;58088;51.186;17.130;2023-09-08T06:59:18;101060.80;;;28.40
70533;BMP180;58088;51.186;17.130;2023-09-08T07:01:44;101063.20;;;28.50
70533;BMP180;58088;51.186;17.130;2023-09-08T07:04:10;101060.40;;;28.30
70533;BMP180;58088;51.186;17.130;2023-09-08T07:06:37;101061.00;;;28.24
70533;BMP180;58088;51.186;17.130;2023-09-08T07:09:04;101051.40;;;28.20
70533;BMP180;58088;51.186;17.130;2023-09-08T07:11:31;101059.00;;;28.28
70533;BMP180;58088;51.186;17.130;2023-09-08T07:13:57;101056.00;;;28.34
70533;BMP180;58088;51.186;17.130;2023-09-08T07:16:23;101060.00;;;28.56
70533;BMP180;58088;51.186;17.130;2023-09-08T07:18:49;101060.20;;;28.62
70533;BMP180;58088;51.186;17.130;2023-09-08T07:21:16;101059.40;;;28.72
70533;BMP180;58088;51.186;17.130;2023-09-08T07:23:42;101061.80;;;28.68
70533;BMP180;58088;51.186;17.130;2023-09-08T07:26:08;101061.40;;;28.60
70533;BMP180;58088;51.186;17.130;2023-09-08T07:28:34;101063.20;;;28.70
70533;BMP180;58088;51.186;17.130;2023-09-08T07:31:04;101066.40;;;28.80
70533;BMP180;58088;51.186;17.130;2023-09-08T07:33:32;101064.60;;;28.58
70533;BMP180;58088;51.186;17.130;2023-09-08T07:36:06;101060.20;;;28.50
70533;BMP180;58088;51.186;17.130;2023-09-08T07:38:33;101066.40;;;28.50
70533;BMP180;58088;51.186;17.130;2023-09-08T07:41:02;101066.40;;;28.50
70533;BMP180;58088;51.186;17.130;2023-09-08T07:43:29;101068.80;;;28.30
70533;BMP180;58088;51.186;17.130;2023-09-08T07:45:55;101060.20;;;28.20
70533;BMP180;58088;51.186;17.130;2023-09-08T07:48:22;101063.60;;;28.32
70533;BMP180;58088;51.186;17.130;2023-09-08T07:50:48;101066.20;;;28.22
70533;BMP180;58088;51.186;17.130;2023-09-08T07:53:14;101071.20;;;28.20
70533;BMP180;58088;51.186;17.130;2023-09-08T07:55:40;101074.00;;;28.10
70533;BMP180;58088;51.186;17.130;2023-09-08T07:58:08;101069.20;;;27.90
70533;BMP180;58088;51.186;17.130;2023-09-08T08:00:34;101071.20;;;27.80
70533;BMP180;58088;51.186;17.130;2023-09-08T08:03:00;101073.20;;;27.90
70533;BMP180;58088;51.186;17.130;2023-09-08T08:05:26;101072.20;;;28.10
70533;BMP180;58088;51.186;17.130;2023-09-08T08:07:52;101067.40;;;28.00
70533;BMP180;58088;51.186;17.130;2023-09-08T08:10:19;101067.20;;;28.10
70533;BMP180;58088;51.186;17.130;2023-09-08T08:12:45;101065.00;;;28.00
70533;BMP180;58088;51.186;17.130;2023-09-08T08:15:11;101067.00;;;28.00
70533;BMP180;58088;51.186;17.130;2023-09-08T08:17:39;101065.00;;;27.90
70533;BMP180;58088;51.186;17.130;2023-09-08T08:20:07;101066.20;;;27.90
70533;BMP180;58088;51.186;17.130;2023-09-08T08:22:37;101070.40;;;28.00
70533;BMP180;58088;51.186;17.130;2023-09-08T08:25:04;101066.00;;;28.00
70533;BMP180;58088;51.186;17.130;2023-09-08T08:27:31;101066.20;;;28.00
70533;BMP180;58088;51.186;17.130;2023-09-08T08:29:58;101062.40;;;28.00
70533;BMP180;58088;51.186;17.130;2023-09-08T08:32:27;101063.80;;;28.20
70533;BMP180;58088;51.186;17.130;2023-09-08T08:34:53;101059.60;;;28.10
70533;BMP180;58088;51.186;17.130;2023-09-08T08:37:19;101053.60;;;28.20
70533;BMP180;58088;51.186;17.130;2023-09-08T08:39:45;101052.40;;;28.30
70533;BMP180;58088;51.186;17.130;2023-09-08T08:42:12;101049.00;;;28.40
70533;BMP180;58088;51.186;17.130;2023-09-08T08:44:40;101054.40;;;28.50
70533;BMP180;58088;51.186;17.130;2023-09-08T08:47:08;101050.60;;;28.60
70533;BMP180;58088;51.186;17.130;2023-09-08T08:49:36;101045.40;;;28.80
70533;BMP180;58088;51.186;17.130;2023-09-08T08:52:05;101049.20;;;28.80
70533;BMP180;58088;51.186;17.130;2023-09-08T08:54:38;101048.00;;;28.80
70533;BMP180;58088;51.186;17.130;2023-09-08T08:57:06;101047.00;;;28.80
70533;BMP180;58088;51.186;17.130;2023-09-08T08:59:32;101045.20;;;28.90
70533;BMP180;58088;51.186;17.130;2023-09-08T09:01:59;101042.20;;;28.90
70533;BMP180;58088;51.186;17.130;2023-09-08T09:04:27;101045.60;;;29.00
70533;BMP180;58088;51.186;17.130;2023-09-08T09:06:55;101047.20;;;29.10
70533;BMP180;58088;51.186;17.130;2023-09-08T09:09:21;101042.40;;;29.00
70533;BMP180;58088;51.186;17.130;2023-09-08T09:11:50;101035.80;;;29.00
70533;BMP180;58088;51.186;17.130;2023-09-08T09:14:16;101037.20;;;28.98
70533;BMP180;58088;51.186;17.130;2023-09-08T09:16:46;101036.80;;;29.00
70533;BMP180;58088;51.186;17.130;2023-09-08T09:19:22;101029.40;;;28.90
70533;BMP180;58088;51.186;17.130;2023-09-08T09:21:58;101030.00;;;29.00
70533;BMP180;58088;51.186;17.130;2023-09-08T09:24:32;101029.40;;;29.00
70533;BMP180;58088;51.186;17.130;2023-09-08T09:27:00;101025.40;;;29.00
70533;BMP180;58088;51.186;17.130;2023-09-08T09:29:28;101025.80;;;28.92
70533;BMP180;58088;51.186;17.130;2023-09-08T09:32:04;101026.00;;;28.96
70533;BMP180;58088;51.186;17.130;2023-09-08T09:34:35;101024.20;;;28.90
70533;BMP180;58088;51.186;17.130;2023-09-08T09:37:01;101022.00;;;28.80
70533;BMP180;58088;51.186;17.130;2023-09-08T09:39:31;101017.00;;;28.90
70533;BMP180;58088;51.186;17.130;2023-09-08T09:41:57;101013.40;;;28.90
70533;BMP180;58088;51.186;17.130;2023-09-08T09:44:24;101013.60;;;29.06
70533;BMP180;58088;51.186;17.130;2023-09-08T09:46:52;101012.20;;;29.20
70533;BMP180;58088;51.186;17.130;2023-09-08T09:49:20;101010.60;;;29.34
70533;BMP180;58088;51.186;17.130;2023-09-08T09:51:49;101010.00;;;29.30
70533;BMP180;58088;51.186;17.130;2023-09-08T09:54:16;101005.80;;;29.40
70533;BMP180;58088;51.186;17.130;2023-09-08T09:56:44;101005.80;;;29.50
70533;BMP180;58088;51.186;17.130;2023-09-08T09:59:13;101016.00;;;29.52
70533;BMP180;58088;51.186;17.130;2023-09-08T10:01:40;101005.60;;;29.40
70533;BMP180;58088;51.186;17.130;2023-09-08T10:04:08;101002.60;;;29.50
70533;BMP180;58088;51.186;17.130;2023-09-08T10:06:36;101006.80;;;29.60
70533;BMP180;58088;51.186;17.130;2023-09-08T10:09:05;101003.60;;;29.50
70533;BMP180;58088;51.186;17.130;2023-09-08T10:11:48;101003.80;;;29.60
70533;BMP180;58088;51.186;17.130;2023-09-08T10:14:18;101000.00;;;29.60
70533;BMP180;58088;51.186;17.130;2023-09-08T10:16:46;101000.40;;;29.60
70533;BMP180;58088;51.186;17.130;2023-09-08T10:19:16;101001.20;;;29.70
70533;BMP180;58088;51.186;17.130;2023-09-08T10:21:47;101000.80;;;29.62
70533;BMP180;58088;51.186;17.130;2023-09-08T10:24:19;100997.00;;;29.62
70533;BMP180;58088;51.186;17.130;2023-09-08T10:29:27;100996.20;;;29.70
70533;BMP180;58088;51.186;17.130;2023-09-08T10:31:55;100988.80;;;29.70
70533;BMP180;58088;51.186;17.130;2023-09-08T10:34:24;100990.20;;;29.60
70533;BMP180;58088;51.186;17.130;2023-09-08T10:36:52;100986.80;;;29.60
70533;BMP180;58088;51.186;17.130;2023-09-08T10:39:32;100985.60;;;29.60
70533;BMP180;58088;51.186;17.130;2023-09-08T10:47:25;100985.60;;;29.60
70533;BMP180;58088;51.186;17.130;2023-09-08T10:49:53;100986.20;;;29.70
70533;BMP180;58088;51.186;17.130;2023-09-08T10:52:24;100982.60;;;29.70
70533;BMP180;58088;51.186;17.130;2023-09-08T10:54:53;100977.60;;;29.74
70533;BMP180;58088;51.186;17.130;2023-09-08T10:57:24;100975.80;;;29.82
70533;BMP180;58088;51.186;17.130;2023-09-08T10:59:51;100974.80;;;29.90
70533;BMP180;58088;51.186;17.130;2023-09-08T11:02:41;100968.20;;;29.90
70533;BMP180;58088;51.186;17.130;2023-09-08T11:05:10;100978.20;;;30.10
70533;BMP180;58088;51.186;17.130;2023-09-08T11:07:38;100975.40;;;30.12
70533;BMP180;58088;51.186;17.130;2023-09-08T11:10:06;100976.20;;;30.10
70533;BMP180;58088;51.186;17.130;2023-09-08T11:12:33;100969.00;;;30.10
70533;BMP180;58088;51.186;17.130;2023-09-08T11:15:02;100965.80;;;30.10
70533;BMP180;58088;51.186;17.130;2023-09-08T11:17:32;100960.00;;;30.10
70533;BMP180;58088;51.186;17.130;2023-09-08T11:20:02;100956.20;;;30.10
70533;BMP180;58088;51.186;17.130;2023-09-08T11:22:36;100954.80;;;30.28
70533;BMP180;58088;51.186;17.130;2023-09-08T11:25:08;100954.60;;;30.40
70533;BMP180;58088;51.186;17.130;2023-09-08T11:27:37;100954.40;;;30.40
70533;BMP180;58088;51.186;17.130;2023-09-08T11:30:08;100953.20;;;30.50
70533;BMP180;58088;51.186;17.130;2023-09-08T11:32:36;100957.00;;;30.60
70533;BMP180;58088;51.186;17.130;2023-09-08T11:35:07;100959.60;;;30.60
70533;BMP180;58088;51.186;17.130;2023-09-08T11:37:38;100955.00;;;30.60
70533;BMP180;58088;51.186;17.130;2023-09-08T11:40:06;100949.80;;;30.68
70533;BMP180;58088;51.186;17.130;2023-09-08T11:42:35;100950.60;;;30.80
70533;BMP180;58088;51.186;17.130;2023-09-08T11:45:02;100951.60;;;30.86
70533;BMP180;58088;51.186;17.130;2023-09-08T11:47:31;100950.80;;;30.90
70533;BMP180;58088;51.186;17.130;2023-09-08T11:49:57;100948.80;;;30.90
70533;BMP180;58088;51.186;17.130;2023-09-08T11:52:23;100940.40;;;30.90
70533;BMP180;58088;51.186;17.130;2023-09-08T11:54:52;100943.60;;;31.00
70533;BMP180;58088;51.186;17.130;2023-09-08T11:57:19;100948.20;;;31.00
70533;BMP180;58088;51.186;17.130;2023-09-08T11:59:45;100948.60;;;30.92
70533;BMP180;58088;51.186;17.130;2023-09-08T12:02:14;100943.60;;;31.00
70533;BMP180;58088;51.186;17.130;2023-09-08T12:04:41;100945.20;;;31.04
70533;BMP180;58088;51.186;17.130;2023-09-08T12:07:12;100944.00;;;31.10
70533;BMP180;58088;51.186;17.130;2023-09-08T12:09:42;100939.00;;;31.10
70533;BMP180;58088;51.186;17.130;2023-09-08T12:12:12;100938.20;;;31.20
70533;BMP180;58088;51.186;17.130;2023-09-08T12:14:42;100934.60;;;31.30
70533;BMP180;58088;51.186;17.130;2023-09-08T12:17:09;100931.60;;;31.30
70533;BMP180;58088;51.186;17.130;2023-09-08T12:19:36;100931.00;;;31.30
70533;BMP180;58088;51.186;17.130;2023-09-08T12:22:06;100926.80;;;31.30
70533;BMP180;58088;51.186;17.130;2023-09-08T12:25:08;100926.80;;;31.30
70533;BMP180;58088;51.186;17.130;2023-09-08T12:27:36;100925.40;;;31.10
70533;BMP180;58088;51.186;17.130;2023-09-08T12:30:04;100922.00;;;31.10
70533;BMP180;58088;51.186;17.130;2023-09-08T12:32:31;100922.00;;;31.20
70533;BMP180;58088;51.186;17.130;2023-09-08T12:35:00;100920.00;;;31.14
70533;BMP180;58088;51.186;17.130;2023-09-08T12:37:30;100920.80;;;31.20
70533;BMP180;58088;51.186;17.130;2023-09-08T12:39:58;100916.20;;;31.30
70533;BMP180;58088;51.186;17.130;2023-09-08T12:42:26;100916.60;;;31.20
70533;BMP180;58088;51.186;17.130;2023-09-08T12:44:55;100917.40;;;31.20
70533;BMP180;58088;51.186;17.130;2023-09-08T12:47:21;100917.40;;;31.18
70533;BMP180;58088;51.186;17.130;2023-09-08T12:49:48;100918.60;;;31.10
70533;BMP180;58088;51.186;17.130;2023-09-08T12:52:14;100911.20;;;31.10
70533;BMP180;58088;51.186;17.130;2023-09-08T12:54:41;100912.60;;;31.10
70533;BMP180;58088;51.186;17.130;2023-09-08T12:57:07;100913.20;;;31.06
70533;BMP180;58088;51.186;17.130;2023-09-08T12:59:33;100911.60;;;31.04
70533;BMP180;58088;51.186;17.130;2023-09-08T13:01:59;100907.80;;;31.14
70533;BMP180;58088;51.186;17.130;2023-09-08T13:04:25;100908.40;;;31.20
70533;BMP180;58088;51.186;17.130;2023-09-08T13:06:52;100905.20;;;31.20
70533;BMP180;58088;51.186;17.130;2023-09-08T13:09:19;100903.00;;;31.20
70533;BMP180;58088;51.186;17.130;2023-09-08T13:11:46;100901.60;;;31.20
70533;BMP180;58088;51.186;17.130;2023-09-08T13:14:12;100898.60;;;31.10
70533;BMP180;58088;51.186;17.130;2023-09-08T13:16:39;100898.20;;;31.14
70533;BMP180;58088;51.186;17.130;2023-09-08T13:19:05;100899.80;;;31.10
70533;BMP180;58088;51.186;17.130;2023-09-08T13:21:32;100901.60;;;31.06
70533;BMP180;58088;51.186;17.130;2023-09-08T13:23:58;100899.20;;;31.00
70533;BMP180;58088;51.186;17.130;2023-09-08T13:26:25;100895.40;;;31.10
70533;BMP180;58088;51.186;17.130;2023-09-08T13:28:51;100893.00;;;31.00
70533;BMP180;58088;51.186;17.130;2023-09-08T13:31:18;100889.40;;;31.00
70533;BMP180;58088;51.186;17.130;2023-09-08T13:33:45;100882.60;;;31.00
70533;BMP180;58088;51.186;17.130;2023-09-08T13:36:11;100881.60;;;30.90
70533;BMP180;58088;51.186;17.130;2023-09-08T13:38:39;100879.20;;;30.80
70533;BMP180;58088;51.186;17.130;2023-09-08T13:41:05;100872.80;;;30.82
70533;BMP180;58088;51.186;17.130;2023-09-08T13:43:32;100867.40;;;30.90
70533;BMP180;58088;51.186;17.130;2023-09-08T13:45:59;100869.80;;;30.90
70533;BMP180;58088;51.186;17.130;2023-09-08T13:48:26;100867.00;;;30.82
70533;BMP180;58088;51.186;17.130;2023-09-08T13:50:53;100866.80;;;30.88
70533;BMP180;58088;51.186;17.130;2023-09-08T13:53:20;100861.60;;;30.90
70533;BMP180;58088;51.186;17.130;2023-09-08T13:55:46;100854.00;;;30.90
70533;BMP180;58088;51.186;17.130;2023-09-08T13:58:14;100858.20;;;30.92
70533;BMP180;58088;51.186;17.130;2023-09-08T14:00:40;100858.20;;;30.90